DOP weather

La Puntilla Airport
La Puntilla, Mendoza Province, Argentina

Public forecast

Using degrees Celsius for public forecast. Weather courtesy of forecast.io.

Closest aviation weather report (METAR) to La Puntilla Airport

Closest report is El Plumerillo Airport, 8.9 nm (16.4 km) NNE. Retrieved 2020/08/07 23:00 UTC (44 minutes ago):

SAME 072300Z 09006KT CAVOK 11/04 Q1022

Closest aviation forecast (TAF) to La Puntilla Airport

Closest forecast is El Plumerillo Airport, 8.9 nm (16.4 km) NNE. Retrieved 2020/08/07 18:00 UTC (6 hours ago):

TAF SAME 071700Z 0718/0818 14005KT CAVOK TX17/0720Z TN03/0811Z